createdAt,value
2022-10-04T00:01:02.351Z,8.20
2022-10-04T00:03:37.790Z,8.10
2022-10-04T00:06:06.974Z,7.75
2022-10-04T00:08:41.425Z,8.82
2022-10-04T00:11:13.225Z,7.70
2022-10-04T00:13:41.659Z,8.43
2022-10-04T00:16:21.161Z,8.70
2022-10-04T00:18:47.888Z,7.80
2022-10-04T00:21:16.997Z,7.70
2022-10-04T00:23:45.999Z,8.05
2022-10-04T00:26:41.033Z,7.95
2022-10-04T00:29:26.667Z,7.88
2022-10-04T00:32:27.504Z,7.75
2022-10-04T00:34:58.066Z,7.78
2022-10-04T00:37:27.266Z,8.57
2022-10-04T00:40:11.323Z,8.45
2022-10-04T00:42:55.966Z,7.30
2022-10-04T00:45:37.049Z,8.75
2022-10-04T00:48:17.808Z,8.20
2022-10-04T00:50:56.485Z,7.82
2022-10-04T00:54:06.922Z,8.43
2022-10-04T00:56:43.708Z,7.60
2022-10-04T00:59:37.200Z,8.18
2022-10-04T01:02:13.268Z,7.70
2022-10-04T01:04:42.349Z,7.72
2022-10-04T01:07:11.793Z,8.95
2022-10-04T01:09:47.242Z,8.23
2022-10-04T01:12:23.892Z,8.55
2022-10-04T01:15:07.615Z,8.77
2022-10-04T01:17:35.511Z,8.20
2022-10-04T01:20:02.764Z,7.90
2022-10-04T01:22:37.318Z,7.25
2022-10-04T01:25:04.527Z,8.23
2022-10-04T01:27:43.443Z,7.88
2022-10-04T01:30:16.280Z,8.68
2022-10-04T01:32:45.214Z,7.93
2022-10-04T01:35:14.610Z,8.52
2022-10-04T01:37:41.480Z,7.85
2022-10-04T01:40:10.139Z,7.47
2022-10-04T01:42:41.239Z,8.13
2022-10-04T01:45:33.381Z,7.82
2022-10-04T01:48:01.793Z,8.70
2022-10-04T01:50:36.109Z,7.78
2022-10-04T01:53:14.902Z,7.93
2022-10-04T01:55:47.448Z,7.70
2022-10-04T01:58:21.228Z,8.50
2022-10-04T02:00:57.115Z,8.38
2022-10-04T02:03:52.838Z,8.02
2022-10-04T02:06:21.508Z,7.65
2022-10-04T02:08:56.997Z,8.57
2022-10-04T02:11:28.413Z,7.40
2022-10-04T02:13:56.016Z,7.35
2022-10-04T02:16:24.749Z,7.85
2022-10-04T02:18:55.053Z,8.13
2022-10-04T02:21:23.485Z,7.63
2022-10-04T02:23:52.108Z,8.90
2022-10-04T02:26:18.726Z,7.78
2022-10-04T02:28:45.343Z,8.30
2022-10-04T02:31:30.737Z,8.23
2022-10-04T02:33:59.343Z,8.10
2022-10-04T02:36:30.001Z,7.65
2022-10-04T02:39:11.992Z,8.10
2022-10-04T02:41:54.698Z,7.55
2022-10-04T02:44:32.151Z,7.57
2022-10-04T02:47:15.634Z,7.72
2022-10-04T02:50:14.831Z,8.13
2022-10-04T02:52:50.473Z,8.50
2022-10-04T02:55:36.088Z,8.35
2022-10-04T02:58:08.255Z,8.63
2022-10-04T03:00:46.922Z,8.63
2022-10-04T03:03:23.555Z,8.65
2022-10-04T03:05:55.720Z,9.23
2022-10-04T03:08:22.358Z,9.10
2022-10-04T03:10:50.593Z,8.70
2022-10-04T03:13:20.169Z,9.52
2022-10-04T03:15:49.479Z,8.35
2022-10-04T03:18:20.882Z,8.70
2022-10-04T03:20:47.760Z,8.95
2022-10-04T03:23:19.908Z,9.40
2022-10-04T03:25:52.247Z,8.75
2022-10-04T03:28:19.501Z,9.02
2022-10-04T03:30:49.819Z,9.25
2022-10-04T03:33:22.730Z,10.07
2022-10-04T03:35:55.757Z,9.40
2022-10-04T03:38:24.350Z,9.52
2022-10-04T03:40:56.269Z,9.65
2022-10-04T03:43:31.877Z,9.23
2022-10-04T03:46:03.495Z,9.52
2022-10-04T03:48:46.722Z,9.43
2022-10-04T03:51:26.583Z,9.05
2022-10-04T03:53:58.863Z,8.85
2022-10-04T03:56:31.781Z,9.40
2022-10-04T03:59:04.737Z,9.18
2022-10-04T04:02:09.571Z,9.88
2022-10-04T04:05:06.150Z,9.25
2022-10-04T04:07:43.900Z,9.65
2022-10-04T04:10:23.250Z,10.13
2022-10-04T04:12:57.763Z,8.85
2022-10-04T04:15:30.543Z,9.65
2022-10-04T04:18:01.369Z,9.48
2022-10-04T04:20:36.784Z,9.32
2022-10-04T04:23:15.530Z,10.00
2022-10-04T04:25:46.805Z,9.95
2022-10-04T04:28:32.141Z,10.05
2022-10-04T04:31:04.635Z,9.55
2022-10-04T04:34:00.673Z,10.73
2022-10-04T04:36:34.481Z,9.88
2022-10-04T04:39:40.154Z,9.52
2022-10-04T04:42:21.392Z,9.93
2022-10-04T04:44:52.689Z,9.60
2022-10-04T04:47:27.410Z,9.82
2022-10-04T04:49:56.381Z,9.88
2022-10-04T04:52:28.286Z,10.70
2022-10-04T04:54:56.297Z,9.60
2022-10-04T04:57:23.263Z,9.80
2022-10-04T04:59:59.921Z,9.98
2022-10-04T05:02:30.734Z,9.43
2022-10-04T05:05:30.460Z,10.23
2022-10-04T05:08:16.011Z,10.27
2022-10-04T05:10:57.851Z,9.93
2022-10-04T05:13:40.261Z,9.73
2022-10-04T05:16:13.361Z,9.18
2022-10-04T05:18:40.260Z,9.82
2022-10-04T05:21:22.826Z,9.15
2022-10-04T05:23:49.844Z,10.05
2022-10-04T05:26:26.329Z,8.98
2022-10-04T05:28:53.584Z,9.73
2022-10-04T05:31:41.621Z,10.55
2022-10-04T05:34:19.635Z,8.77
2022-10-04T05:37:06.530Z,9.57
2022-10-04T05:39:55.414Z,8.77
2022-10-04T05:42:34.286Z,9.38
2022-10-04T05:45:01.466Z,9.45
2022-10-04T05:47:30.986Z,9.93
2022-10-04T05:50:01.009Z,9.75
2022-10-04T05:52:36.031Z,10.07
2022-10-04T05:55:17.891Z,9.43
2022-10-04T05:58:19.161Z,8.95
2022-10-04T06:01:07.613Z,9.70
2022-10-04T06:04:03.639Z,9.52
2022-10-04T06:06:58.633Z,9.80
2022-10-04T06:09:43.474Z,9.63
2022-10-04T06:12:17.369Z,9.68
2022-10-04T06:14:52.961Z,9.07
2022-10-04T06:17:29.056Z,8.93
2022-10-04T06:20:13.068Z,9.45
2022-10-04T06:22:56.488Z,9.10
2022-10-04T06:25:31.785Z,9.55
2022-10-04T06:28:18.313Z,9.20
2022-10-04T06:31:08.316Z,9.02
2022-10-04T06:33:49.143Z,9.40
2022-10-04T06:37:00.138Z,9.07
2022-10-04T06:39:32.725Z,9.50
2022-10-04T06:42:14.495Z,8.95
2022-10-04T06:45:25.405Z,9.30
2022-10-04T06:48:10.210Z,8.85
2022-10-04T06:50:47.453Z,8.10
2022-10-04T06:53:32.583Z,8.23
2022-10-04T06:56:19.700Z,8.20
2022-10-04T06:58:46.204Z,8.30
2022-10-04T07:01:22.642Z,7.95
2022-10-04T07:03:57.190Z,7.40
2022-10-04T07:06:29.241Z,7.97
2022-10-04T07:09:03.381Z,6.88
2022-10-04T07:11:43.545Z,7.07
2022-10-04T07:14:16.914Z,7.20
2022-10-04T07:16:43.370Z,6.35
2022-10-04T07:19:19.106Z,6.85
2022-10-04T07:22:13.104Z,7.45
2022-10-04T07:24:52.045Z,6.28
2022-10-04T07:27:28.869Z,7.25
2022-10-04T07:29:58.144Z,6.55
2022-10-04T07:32:34.699Z,5.97
2022-10-04T07:35:07.338Z,7.07
2022-10-04T07:37:45.576Z,6.45
2022-10-04T07:40:41.176Z,6.28
2022-10-04T07:43:14.188Z,6.32
2022-10-04T07:45:42.215Z,5.93
2022-10-04T07:48:24.831Z,7.05
2022-10-04T07:51:21.456Z,5.90
2022-10-04T07:54:12.107Z,8.13
2022-10-04T07:56:52.792Z,7.30
2022-10-04T07:59:58.640Z,6.55
2022-10-04T08:02:55.724Z,6.20
2022-10-04T08:05:36.896Z,5.60
2022-10-04T08:08:21.622Z,6.38
2022-10-04T08:11:15.035Z,6.47
2022-10-04T08:14:15.739Z,5.72
2022-10-04T08:17:00.778Z,5.65
2022-10-04T08:19:55.019Z,5.82
2022-10-04T08:22:33.803Z,5.60
2022-10-04T08:25:21.082Z,5.07
2022-10-04T08:28:09.380Z,5.93
2022-10-04T08:31:05.412Z,5.40
2022-10-04T08:33:56.905Z,4.82
2022-10-04T08:36:26.395Z,5.00
2022-10-04T08:39:18.290Z,6.05
2022-10-04T08:41:54.097Z,4.82
2022-10-04T08:44:57.137Z,4.90
2022-10-04T08:47:37.813Z,5.00
2022-10-04T08:50:35.525Z,4.75
2022-10-04T08:53:49.093Z,4.90
2022-10-04T08:56:38.639Z,4.20
2022-10-04T08:59:28.324Z,5.07
2022-10-04T09:02:10.067Z,4.72
2022-10-04T09:04:43.525Z,4.90
2022-10-04T09:07:44.073Z,4.88
2022-10-04T09:10:29.293Z,4.43
2022-10-04T09:13:17.635Z,4.68
2022-10-04T09:16:15.649Z,4.72
2022-10-04T09:19:21.789Z,5.30
2022-10-04T09:21:57.554Z,6.00
2022-10-04T09:24:49.261Z,5.18
2022-10-04T09:27:57.968Z,5.43
2022-10-04T09:30:37.620Z,4.90
2022-10-04T09:33:49.408Z,5.05
2022-10-04T09:36:25.743Z,5.07
2022-10-04T09:39:35.581Z,5.57
2022-10-04T09:42:49.976Z,5.38
2022-10-04T09:45:21.454Z,6.63
2022-10-04T09:48:16.136Z,5.43
2022-10-04T09:51:07.949Z,6.13
2022-10-04T09:53:44.432Z,5.80
2022-10-04T09:56:52.179Z,6.13
2022-10-04T09:59:37.495Z,5.65
2022-10-04T10:02:30.309Z,5.38
2022-10-04T10:05:03.244Z,5.15
2022-10-04T10:07:41.787Z,5.78
2022-10-04T10:10:54.212Z,5.13
2022-10-04T10:13:40.549Z,5.20
2022-10-04T10:16:07.139Z,4.70
2022-10-04T10:19:01.118Z,5.38
2022-10-04T10:21:30.633Z,5.32
2022-10-04T10:23:57.102Z,6.05
2022-10-04T10:26:32.131Z,5.25
2022-10-04T10:29:26.315Z,5.38
2022-10-04T10:32:10.107Z,5.10
2022-10-04T10:34:45.834Z,4.75
2022-10-04T10:37:46.390Z,4.97
2022-10-04T10:40:35.389Z,4.18
2022-10-04T10:43:25.499Z,4.07
2022-10-04T10:46:06.703Z,6.10
2022-10-04T10:48:51.905Z,4.80
2022-10-04T10:51:51.288Z,5.00
2022-10-04T10:54:17.807Z,5.55
2022-10-04T10:57:01.178Z,4.55
2022-10-04T10:59:37.133Z,5.03
2022-10-04T11:02:49.351Z,4.75
2022-10-04T11:05:29.204Z,4.75
2022-10-04T11:08:05.012Z,4.93
2022-10-04T11:11:05.580Z,5.05
2022-10-04T11:14:12.594Z,4.93
2022-10-04T11:17:20.986Z,4.43
2022-10-04T11:20:24.814Z,4.50
2022-10-04T11:23:37.212Z,4.05
2022-10-04T11:26:32.931Z,3.78
2022-10-04T11:29:40.030Z,4.28
2022-10-04T11:32:49.142Z,3.40
2022-10-04T11:35:32.292Z,3.53
2022-10-04T11:38:25.140Z,4.00
2022-10-04T11:41:11.035Z,4.03
2022-10-04T11:43:46.587Z,4.15
2022-10-04T11:46:33.777Z,3.72
2022-10-04T11:49:28.349Z,3.65
2022-10-04T11:52:02.031Z,4.88
2022-10-04T11:54:47.895Z,4.30
2022-10-04T11:57:17.201Z,4.30
2022-10-04T11:59:49.033Z,3.22
2022-10-04T12:02:18.622Z,4.15
2022-10-04T12:05:03.332Z,4.00
2022-10-04T12:07:48.156Z,3.30
2022-10-04T12:10:37.657Z,4.30
2022-10-04T12:13:35.096Z,3.50
2022-10-04T12:16:32.954Z,3.63
2022-10-04T12:19:32.010Z,3.42
2022-10-04T12:22:55.807Z,2.80
2022-10-04T12:25:43.873Z,3.20
2022-10-04T12:28:22.342Z,3.28
2022-10-04T12:31:15.334Z,2.92
2022-10-04T12:34:16.806Z,2.80
2022-10-04T12:36:57.925Z,4.53
2022-10-04T12:39:24.495Z,3.75
2022-10-04T12:42:08.857Z,3.00
2022-10-04T12:45:01.065Z,5.00
2022-10-04T12:47:57.099Z,3.08
2022-10-04T12:50:35.683Z,3.03
2022-10-04T12:53:31.974Z,2.60
2022-10-04T12:56:06.961Z,2.38
2022-10-04T12:58:56.019Z,2.97
2022-10-04T13:01:31.922Z,2.70
2022-10-04T13:04:05.084Z,2.50
2022-10-04T13:06:48.004Z,2.60
2022-10-04T13:09:33.013Z,2.83
2022-10-04T13:12:19.854Z,2.85
2022-10-04T13:14:56.980Z,3.45
2022-10-04T13:17:35.385Z,3.20
2022-10-04T13:20:40.131Z,3.17
2022-10-04T13:23:21.777Z,3.00
2022-10-04T13:26:03.755Z,2.70
2022-10-04T13:28:37.346Z,2.83
2022-10-04T13:31:24.609Z,2.97
2022-10-04T13:33:51.252Z,2.90
2022-10-04T13:36:47.111Z,4.75
2022-10-04T13:39:38.281Z,3.50
2022-10-04T13:42:33.716Z,2.95
2022-10-04T13:45:09.478Z,3.33
2022-10-04T13:47:56.933Z,2.88
2022-10-04T13:50:45.445Z,3.00
2022-10-04T13:54:01.333Z,3.42
2022-10-04T13:56:40.489Z,3.10
2022-10-04T13:59:22.971Z,3.20
2022-10-04T14:02:10.441Z,3.20
2022-10-04T14:04:39.910Z,2.80
2022-10-04T14:07:34.614Z,2.78
2022-10-04T14:10:19.294Z,2.58
2022-10-04T14:12:45.880Z,2.58
2022-10-04T14:15:59.105Z,2.72
2022-10-04T14:18:37.854Z,2.78
2022-10-04T14:21:19.180Z,2.92
2022-10-04T14:24:04.978Z,3.08
2022-10-04T14:26:43.999Z,2.67
2022-10-04T14:29:44.627Z,2.75
2022-10-04T14:32:28.287Z,3.13
2022-10-04T14:35:38.452Z,2.85
2022-10-04T14:38:29.676Z,3.30
2022-10-04T14:41:10.708Z,3.70
2022-10-04T14:44:28.395Z,3.10
2022-10-04T14:47:32.828Z,2.88
2022-10-04T14:50:23.954Z,3.40
2022-10-04T14:53:10.815Z,3.03
2022-10-04T14:55:56.099Z,3.33
2022-10-04T14:58:51.719Z,3.67
2022-10-04T15:01:22.890Z,3.08
2022-10-04T15:04:20.566Z,2.60
2022-10-04T15:06:55.735Z,2.83
2022-10-04T15:09:47.460Z,2.88
2022-10-04T15:15:13.577Z,2.78
2022-10-04T15:17:52.243Z,2.25
2022-10-04T15:20:51.475Z,3.10
2022-10-04T15:23:35.758Z,3.20
2022-10-04T15:26:23.362Z,2.83
2022-10-04T15:28:49.912Z,2.42
2022-10-04T15:31:33.913Z,2.58
2022-10-04T15:34:34.741Z,2.60
2022-10-04T15:37:25.922Z,2.60
2022-10-04T15:40:03.190Z,2.90
2022-10-04T15:42:33.929Z,2.88
2022-10-04T15:45:16.843Z,2.55
2022-10-04T15:48:01.373Z,3.30
2022-10-04T15:50:27.897Z,3.20
2022-10-04T15:53:10.444Z,2.78
2022-10-04T15:55:36.962Z,2.90
2022-10-04T15:58:09.637Z,2.83
2022-10-04T16:00:43.524Z,2.92
2022-10-04T16:03:13.143Z,2.72
2022-10-04T16:06:21.673Z,2.80
2022-10-04T16:08:51.254Z,2.97
2022-10-04T16:11:56.106Z,2.80
2022-10-04T16:14:37.819Z,2.80
2022-10-04T16:17:58.875Z,3.08
2022-10-04T16:20:39.007Z,3.03
2022-10-04T16:23:24.200Z,3.08
2022-10-04T16:25:59.673Z,3.85
2022-10-04T16:28:51.455Z,3.35
2022-10-04T16:31:24.877Z,2.95
2022-10-04T16:33:58.080Z,3.10
2022-10-04T16:36:47.245Z,2.80
2022-10-04T16:39:56.090Z,3.08
2022-10-04T16:42:45.510Z,2.70
2022-10-04T16:45:14.309Z,3.60
2022-10-04T16:48:13.447Z,3.40
2022-10-04T16:51:06.442Z,3.22
2022-10-04T16:53:54.189Z,3.17
2022-10-04T16:56:23.477Z,3.63
2022-10-04T16:58:50.001Z,4.40
2022-10-04T17:01:22.506Z,4.65
2022-10-04T17:04:04.693Z,5.68
2022-10-04T17:06:54.392Z,5.38
2022-10-04T17:09:32.550Z,6.07
2022-10-04T17:12:45.645Z,5.88
2022-10-04T17:15:14.930Z,5.93
2022-10-04T17:17:46.539Z,5.50
2022-10-04T17:20:31.858Z,4.68
2022-10-04T17:23:17.148Z,4.25
2022-10-04T17:26:19.186Z,5.15
2022-10-04T17:28:45.726Z,8.95
2022-10-04T17:31:19.422Z,12.40
2022-10-04T17:33:55.358Z,9.43
2022-10-04T17:36:37.629Z,8.80
2022-10-04T17:39:41.070Z,8.00
2022-10-04T17:42:16.787Z,6.57
2022-10-04T17:44:57.892Z,5.75
2022-10-04T17:47:55.251Z,5.70
2022-10-04T17:50:56.089Z,4.55
2022-10-04T17:53:48.301Z,4.80
2022-10-04T17:56:27.280Z,4.93
2022-10-04T17:58:59.379Z,4.35
2022-10-04T18:01:34.499Z,5.57
2022-10-04T18:04:28.038Z,6.30
2022-10-04T18:07:06.231Z,5.30
2022-10-04T18:09:45.319Z,5.20
2022-10-04T18:12:23.915Z,4.95
2022-10-04T18:15:15.370Z,5.00
2022-10-04T18:17:46.150Z,4.90
2022-10-04T18:20:30.863Z,5.03
2022-10-04T18:23:27.402Z,4.47
2022-10-04T18:26:07.346Z,4.65
2022-10-04T18:28:34.789Z,4.88
2022-10-04T18:31:27.392Z,5.35
2022-10-04T18:33:54.263Z,5.20
2022-10-04T18:36:31.935Z,5.90
2022-10-04T18:39:21.951Z,5.38
2022-10-04T18:42:14.844Z,4.82
2022-10-04T18:44:57.234Z,5.75
2022-10-04T18:47:38.792Z,4.70
2022-10-04T18:50:36.361Z,5.00
2022-10-04T18:53:16.971Z,4.45
2022-10-04T18:55:49.477Z,5.13
2022-10-04T18:59:04.569Z,4.63
2022-10-04T19:02:04.004Z,5.05
2022-10-04T19:05:18.938Z,5.68
2022-10-04T19:07:58.528Z,5.25
2022-10-04T19:10:42.612Z,5.18
2022-10-04T19:13:42.328Z,5.35
2022-10-04T19:16:19.372Z,5.20
2022-10-04T19:19:02.603Z,5.22
2022-10-04T19:21:55.937Z,6.53
2022-10-04T19:25:07.631Z,5.57
2022-10-04T19:27:42.199Z,5.63
2022-10-04T19:30:20.825Z,5.13
2022-10-04T19:33:00.766Z,5.43
2022-10-04T19:35:44.790Z,5.40
2022-10-04T19:38:29.478Z,5.60
2022-10-04T19:41:02.002Z,5.63
2022-10-04T19:44:02.055Z,5.13
2022-10-04T19:46:46.249Z,4.88
2022-10-04T19:49:49.295Z,4.55
2022-10-04T19:52:27.040Z,4.78
2022-10-04T19:55:17.774Z,5.25
2022-10-04T19:57:49.441Z,5.13
2022-10-04T20:00:20.716Z,4.85
2022-10-04T20:02:48.867Z,5.72
2022-10-04T20:05:25.982Z,5.15
2022-10-04T20:07:57.388Z,5.35
2022-10-04T20:10:29.743Z,5.30
2022-10-04T20:13:13.415Z,4.97
2022-10-04T20:15:40.208Z,6.22
2022-10-04T20:18:31.967Z,5.75
2022-10-04T20:21:01.570Z,5.00
2022-10-04T20:23:56.672Z,4.90
2022-10-04T20:26:56.791Z,5.10
2022-10-04T20:29:52.280Z,5.22
2022-10-04T20:32:34.152Z,4.57
2022-10-04T20:35:02.450Z,5.13
2022-10-04T20:37:45.556Z,5.07
2022-10-04T20:40:34.846Z,5.18
2022-10-04T20:43:13.645Z,4.80
2022-10-04T20:45:50.279Z,5.55
2022-10-04T20:48:21.382Z,5.75
2022-10-04T20:50:49.796Z,5.53
2022-10-04T20:53:26.100Z,5.18
2022-10-04T20:56:11.831Z,4.85
2022-10-04T20:58:40.433Z,7.30
2022-10-04T21:01:33.892Z,4.93
2022-10-04T21:04:30.679Z,4.78
2022-10-04T21:06:59.877Z,4.72
2022-10-04T21:09:32.727Z,4.95
2022-10-04T21:12:03.018Z,4.75
2022-10-04T21:14:37.209Z,5.15
2022-10-04T21:17:28.369Z,5.78
2022-10-04T21:19:55.007Z,5.28
2022-10-04T21:22:30.535Z,4.80
2022-10-04T21:24:59.608Z,4.78
2022-10-04T21:27:34.066Z,5.18
2022-10-04T21:30:02.991Z,4.57
2022-10-04T21:32:34.924Z,4.93
2022-10-04T21:35:02.735Z,5.20
2022-10-04T21:37:30.143Z,5.22
2022-10-04T21:39:56.796Z,5.32
2022-10-04T21:42:23.446Z,5.10
2022-10-04T21:44:50.030Z,5.07
2022-10-04T21:47:17.218Z,5.32
2022-10-04T21:49:43.744Z,5.45
2022-10-04T21:52:12.716Z,5.53
2022-10-04T21:54:39.227Z,5.10
2022-10-04T21:57:05.835Z,5.20
2022-10-04T21:59:32.395Z,5.53
2022-10-04T22:01:59.002Z,5.97
2022-10-04T22:04:25.622Z,5.35
2022-10-04T22:06:52.196Z,5.30
2022-10-04T22:09:20.983Z,4.63
2022-10-04T22:11:47.553Z,5.53
2022-10-04T22:14:14.149Z,5.05
2022-10-04T22:16:40.751Z,5.22
2022-10-04T22:19:07.320Z,5.03
2022-10-04T22:21:34.036Z,4.35
2022-10-04T22:24:06.298Z,4.72
2022-10-04T22:26:32.846Z,4.85
2022-10-04T22:28:59.419Z,4.60
2022-10-04T22:31:28.753Z,5.10
2022-10-04T22:33:56.362Z,5.07
2022-10-04T22:36:40.152Z,5.55
2022-10-04T22:39:11.681Z,5.18
2022-10-04T22:41:42.327Z,4.65
2022-10-04T22:44:38.110Z,5.22
2022-10-04T22:47:10.709Z,4.90
2022-10-04T22:49:43.064Z,4.65
2022-10-04T22:52:15.349Z,4.97
2022-10-04T22:54:45.433Z,5.43
2022-10-04T22:57:14.343Z,5.00
2022-10-04T22:59:47.741Z,4.90
2022-10-04T23:02:24.126Z,5.22
2022-10-04T23:04:53.295Z,4.78
2022-10-04T23:07:20.248Z,4.72
2022-10-04T23:09:49.136Z,4.78
2022-10-04T23:12:15.700Z,4.65
2022-10-04T23:14:42.499Z,4.40
2022-10-04T23:17:28.852Z,4.78
2022-10-04T23:19:58.962Z,5.10
2022-10-04T23:22:30.782Z,4.72
2022-10-04T23:24:58.002Z,4.72
2022-10-04T23:27:24.720Z,4.55
2022-10-04T23:30:01.162Z,5.03
2022-10-04T23:32:27.995Z,4.75
2022-10-04T23:35:00.982Z,4.85
2022-10-04T23:37:36.426Z,4.85
2022-10-04T23:40:03.391Z,4.95
2022-10-04T23:42:33.616Z,4.72
2022-10-04T23:45:01.642Z,4.93
2022-10-04T23:47:37.831Z,4.93
2022-10-04T23:50:39.664Z,4.93
2022-10-04T23:53:16.000Z,5.07
2022-10-04T23:55:44.919Z,5.15
2022-10-04T23:58:20.699Z,4.80
